sensor_id;sensor_type;location;lat;lon;timestamp;temperature;humidity
36498;DHT22;22513;51.222;6.480;2022-07-29T00:00:37;18.70;79.70
36498;DHT22;22513;51.222;6.480;2022-07-29T00:03:03;18.70;80.20
36498;DHT22;22513;51.222;6.480;2022-07-29T00:05:29;18.80;80.00
36498;DHT22;22513;51.222;6.480;2022-07-29T00:07:54;18.80;80.00
36498;DHT22;22513;51.222;6.480;2022-07-29T00:10:20;18.80;79.80
36498;DHT22;22513;51.222;6.480;2022-07-29T00:12:46;18.90;79.70
36498;DHT22;22513;51.222;6.480;2022-07-29T00:15:12;18.90;79.70
36498;DHT22;22513;51.222;6.480;2022-07-29T00:17:38;18.90;79.90
36498;DHT22;22513;51.222;6.480;2022-07-29T00:20:04;18.90;79.80
36498;DHT22;22513;51.222;6.480;2022-07-29T00:22:30;18.90;79.90
36498;DHT22;22513;51.222;6.480;2022-07-29T00:24:55;18.80;80.00
36498;DHT22;22513;51.222;6.480;2022-07-29T00:27:21;18.80;80.10
36498;DHT22;22513;51.222;6.480;2022-07-29T00:29:47;18.80;80.10
36498;DHT22;22513;51.222;6.480;2022-07-29T00:32:12;18.80;80.20
36498;DHT22;22513;51.222;6.480;2022-07-29T00:34:38;18.80;80.20
36498;DHT22;22513;51.222;6.480;2022-07-29T00:37:23;18.70;80.10
36498;DHT22;22513;51.222;6.480;2022-07-29T00:39:48;18.70;80.30
36498;DHT22;22513;51.222;6.480;2022-07-29T00:42:14;18.70;80.40
36498;DHT22;22513;51.222;6.480;2022-07-29T00:44:41;18.70;80.30
36498;DHT22;22513;51.222;6.480;2022-07-29T00:47:07;18.60;80.50
36498;DHT22;22513;51.222;6.480;2022-07-29T00:49:34;18.60;81.00
36498;DHT22;22513;51.222;6.480;2022-07-29T00:52:08;18.50;80.90
36498;DHT22;22513;51.222;6.480;2022-07-29T00:54:34;18.50;81.00
36498;DHT22;22513;51.222;6.480;2022-07-29T00:57:01;18.50;81.20
36498;DHT22;22513;51.222;6.480;2022-07-29T00:59:27;18.50;81.50
36498;DHT22;22513;51.222;6.480;2022-07-29T01:01:54;18.50;81.50
36498;DHT22;22513;51.222;6.480;2022-07-29T01:04:21;18.50;81.40
36498;DHT22;22513;51.222;6.480;2022-07-29T01:06:50;18.50;81.80
36498;DHT22;22513;51.222;6.480;2022-07-29T01:09:17;18.50;81.60
36498;DHT22;22513;51.222;6.480;2022-07-29T01:11:44;18.50;81.70
36498;DHT22;22513;51.222;6.480;2022-07-29T01:14:11;18.50;81.80
36498;DHT22;22513;51.222;6.480;2022-07-29T01:22:21;18.50;82.00
36498;DHT22;22513;51.222;6.480;2022-07-29T01:30:30;18.40;82.00
36498;DHT22;22513;51.222;6.480;2022-07-29T01:33:02;18.40;82.20
36498;DHT22;22513;51.222;6.480;2022-07-29T01:35:36;18.40;81.90
36498;DHT22;22513;51.222;6.480;2022-07-29T01:38:32;18.40;82.00
36498;DHT22;22513;51.222;6.480;2022-07-29T01:41:03;18.40;82.30
36498;DHT22;22513;51.222;6.480;2022-07-29T01:44:15;18.40;82.20
36498;DHT22;22513;51.222;6.480;2022-07-29T01:46:37;18.50;82.20
36498;DHT22;22513;51.222;6.480;2022-07-29T01:49:11;18.40;82.40
36498;DHT22;22513;51.222;6.480;2022-07-29T01:51:51;18.40;82.80
36498;DHT22;22513;51.222;6.480;2022-07-29T01:56:49;18.40;84.60
36498;DHT22;22513;51.222;6.480;2022-07-29T01:59:17;18.30;84.60
36498;DHT22;22513;51.222;6.480;2022-07-29T02:01:45;18.20;84.70
36498;DHT22;22513;51.222;6.480;2022-07-29T02:04:15;18.10;85.20
36498;DHT22;22513;51.222;6.480;2022-07-29T02:06:42;18.00;85.00
36498;DHT22;22513;51.222;6.480;2022-07-29T02:09:10;18.00;85.20
36498;DHT22;22513;51.222;6.480;2022-07-29T02:11:38;18.00;85.30
36498;DHT22;22513;51.222;6.480;2022-07-29T02:14:05;17.90;85.40
36498;DHT22;22513;51.222;6.480;2022-07-29T02:16:33;17.90;85.70
36498;DHT22;22513;51.222;6.480;2022-07-29T02:19:02;17.80;85.80
36498;DHT22;22513;51.222;6.480;2022-07-29T02:21:29;17.80;86.00
36498;DHT22;22513;51.222;6.480;2022-07-29T02:23:59;17.80;86.30
36498;DHT22;22513;51.222;6.480;2022-07-29T02:26:27;17.70;86.40
36498;DHT22;22513;51.222;6.480;2022-07-29T02:28:56;17.70;86.40
36498;DHT22;22513;51.222;6.480;2022-07-29T02:31:26;17.60;87.00
36498;DHT22;22513;51.222;6.480;2022-07-29T02:33:53;17.50;87.50
36498;DHT22;22513;51.222;6.480;2022-07-29T02:36:21;17.50;88.50
36498;DHT22;22513;51.222;6.480;2022-07-29T02:38:48;17.40;89.20
36498;DHT22;22513;51.222;6.480;2022-07-29T02:41:29;17.40;89.70
36498;DHT22;22513;51.222;6.480;2022-07-29T02:43:58;17.40;90.10
36498;DHT22;22513;51.222;6.480;2022-07-29T02:46:32;17.40;90.20
36498;DHT22;22513;51.222;6.480;2022-07-29T02:49:35;17.40;90.40
36498;DHT22;22513;51.222;6.480;2022-07-29T02:52:05;17.40;90.80
36498;DHT22;22513;51.222;6.480;2022-07-29T02:55:14;17.30;91.40
36498;DHT22;22513;51.222;6.480;2022-07-29T02:57:46;17.20;92.10
36498;DHT22;22513;51.222;6.480;2022-07-29T03:00:10;17.10;93.10
36498;DHT22;22513;51.222;6.480;2022-07-29T03:02:39;16.40;97.40
36498;DHT22;22513;51.222;6.480;2022-07-29T03:05:08;15.30;99.90
36498;DHT22;22513;51.222;6.480;2022-07-29T03:07:37;14.70;99.90
36498;DHT22;22513;51.222;6.480;2022-07-29T03:10:04;14.50;99.90
36498;DHT22;22513;51.222;6.480;2022-07-29T03:12:31;14.40;99.90
36498;DHT22;22513;51.222;6.480;2022-07-29T03:14:59;14.20;99.90
36498;DHT22;22513;51.222;6.480;2022-07-29T03:17:26;14.00;99.90
36498;DHT22;22513;51.222;6.480;2022-07-29T03:19:52;13.80;99.90
36498;DHT22;22513;51.222;6.480;2022-07-29T03:22:18;13.70;99.90
36498;DHT22;22513;51.222;6.480;2022-07-29T03:24:44;13.70;99.90
36498;DHT22;22513;51.222;6.480;2022-07-29T03:27:09;13.70;99.90
36498;DHT22;22513;51.222;6.480;2022-07-29T03:29:35;13.60;99.90
36498;DHT22;22513;51.222;6.480;2022-07-29T03:32:03;13.60;99.90
36498;DHT22;22513;51.222;6.480;2022-07-29T03:34:29;13.50;99.90
36498;DHT22;22513;51.222;6.480;2022-07-29T03:36:54;13.40;99.90
36498;DHT22;22513;51.222;6.480;2022-07-29T03:39:23;13.40;99.90
36498;DHT22;22513;51.222;6.480;2022-07-29T03:41:55;13.40;99.90
36498;DHT22;22513;51.222;6.480;2022-07-29T03:44:21;13.40;99.90
36498;DHT22;22513;51.222;6.480;2022-07-29T03:46:49;13.40;99.90
36498;DHT22;22513;51.222;6.480;2022-07-29T03:49:17;13.40;99.90
36498;DHT22;22513;51.222;6.480;2022-07-29T03:51:44;13.50;99.90
36498;DHT22;22513;51.222;6.480;2022-07-29T03:54:10;13.50;99.90
36498;DHT22;22513;51.222;6.480;2022-07-29T03:56:40;13.50;99.90
36498;DHT22;22513;51.222;6.480;2022-07-29T03:59:07;13.50;99.90
36498;DHT22;22513;51.222;6.480;2022-07-29T04:01:34;13.60;99.90
36498;DHT22;22513;51.222;6.480;2022-07-29T04:04:01;13.60;99.90
36498;DHT22;22513;51.222;6.480;2022-07-29T04:06:27;13.70;99.90
36498;DHT22;22513;51.222;6.480;2022-07-29T04:08:53;13.70;99.90
36498;DHT22;22513;51.222;6.480;2022-07-29T04:11:19;13.70;99.90
36498;DHT22;22513;51.222;6.480;2022-07-29T04:13:44;13.60;99.90
36498;DHT22;22513;51.222;6.480;2022-07-29T04:16:10;13.60;99.90
36498;DHT22;22513;51.222;6.480;2022-07-29T04:18:35;13.60;99.90
36498;DHT22;22513;51.222;6.480;2022-07-29T04:21:01;13.60;99.90
36498;DHT22;22513;51.222;6.480;2022-07-29T04:23:32;13.70;99.90
36498;DHT22;22513;51.222;6.480;2022-07-29T04:26:00;13.70;99.90
36498;DHT22;22513;51.222;6.480;2022-07-29T04:28:26;13.80;99.90
36498;DHT22;22513;51.222;6.480;2022-07-29T04:30:52;13.80;99.90
36498;DHT22;22513;51.222;6.480;2022-07-29T04:33:17;13.70;99.90
36498;DHT22;22513;51.222;6.480;2022-07-29T04:35:43;13.60;99.90
36498;DHT22;22513;51.222;6.480;2022-07-29T04:38:08;13.60;99.90
36498;DHT22;22513;51.222;6.480;2022-07-29T04:40:34;13.50;99.90
36498;DHT22;22513;51.222;6.480;2022-07-29T04:43:00;13.50;99.90
36498;DHT22;22513;51.222;6.480;2022-07-29T04:45:27;13.60;99.90
36498;DHT22;22513;51.222;6.480;2022-07-29T04:47:53;13.50;99.90
36498;DHT22;22513;51.222;6.480;2022-07-29T04:50:19;13.60;99.90
36498;DHT22;22513;51.222;6.480;2022-07-29T04:52:45;13.70;99.90
36498;DHT22;22513;51.222;6.480;2022-07-29T04:55:10;13.80;99.90
36498;DHT22;22513;51.222;6.480;2022-07-29T04:57:36;13.90;99.90
36498;DHT22;22513;51.222;6.480;2022-07-29T05:00:03;14.00;99.90
36498;DHT22;22513;51.222;6.480;2022-07-29T05:02:29;14.00;99.90
36498;DHT22;22513;51.222;6.480;2022-07-29T05:04:54;13.90;99.90
36498;DHT22;22513;51.222;6.480;2022-07-29T05:07:20;13.90;99.90
36498;DHT22;22513;51.222;6.480;2022-07-29T05:09:46;13.80;99.90
36498;DHT22;22513;51.222;6.480;2022-07-29T05:12:11;13.90;99.90
36498;DHT22;22513;51.222;6.480;2022-07-29T05:14:37;13.90;99.90
36498;DHT22;22513;51.222;6.480;2022-07-29T05:17:03;14.00;99.90
36498;DHT22;22513;51.222;6.480;2022-07-29T05:19:29;14.00;99.90
36498;DHT22;22513;51.222;6.480;2022-07-29T05:21:54;14.10;99.90
36498;DHT22;22513;51.222;6.480;2022-07-29T05:24:20;14.10;99.90
36498;DHT22;22513;51.222;6.480;2022-07-29T05:26:45;14.20;99.90
36498;DHT22;22513;51.222;6.480;2022-07-29T05:29:11;14.30;99.90
36498;DHT22;22513;51.222;6.480;2022-07-29T05:31:37;14.30;99.90
36498;DHT22;22513;51.222;6.480;2022-07-29T05:34:02;14.40;99.90
36498;DHT22;22513;51.222;6.480;2022-07-29T05:36:28;14.40;99.90
36498;DHT22;22513;51.222;6.480;2022-07-29T05:38:53;14.50;99.90
36498;DHT22;22513;51.222;6.480;2022-07-29T05:41:19;14.50;99.90
36498;DHT22;22513;51.222;6.480;2022-07-29T05:43:45;14.60;99.90
36498;DHT22;22513;51.222;6.480;2022-07-29T05:46:11;14.60;99.90
36498;DHT22;22513;51.222;6.480;2022-07-29T05:48:37;14.70;99.90
36498;DHT22;22513;51.222;6.480;2022-07-29T05:51:02;14.80;99.90
36498;DHT22;22513;51.222;6.480;2022-07-29T05:53:28;14.80;99.90
36498;DHT22;22513;51.222;6.480;2022-07-29T05:55:54;14.90;99.90
36498;DHT22;22513;51.222;6.480;2022-07-29T05:58:20;14.90;99.90
36498;DHT22;22513;51.222;6.480;2022-07-29T06:00:46;14.90;99.90
36498;DHT22;22513;51.222;6.480;2022-07-29T06:03:11;14.90;99.90
36498;DHT22;22513;51.222;6.480;2022-07-29T06:05:37;14.90;99.90
36498;DHT22;22513;51.222;6.480;2022-07-29T06:08:03;15.00;99.90
36498;DHT22;22513;51.222;6.480;2022-07-29T06:10:32;15.00;99.90
36498;DHT22;22513;51.222;6.480;2022-07-29T06:12:58;15.10;99.90
36498;DHT22;22513;51.222;6.480;2022-07-29T06:15:23;15.10;99.90
36498;DHT22;22513;51.222;6.480;2022-07-29T06:17:49;15.10;99.90
36498;DHT22;22513;51.222;6.480;2022-07-29T06:20:14;15.20;99.90
36498;DHT22;22513;51.222;6.480;2022-07-29T06:22:40;15.30;99.90
36498;DHT22;22513;51.222;6.480;2022-07-29T06:25:06;15.40;99.90
36498;DHT22;22513;51.222;6.480;2022-07-29T06:27:32;15.40;99.90
36498;DHT22;22513;51.222;6.480;2022-07-29T06:29:57;15.40;99.90
36498;DHT22;22513;51.222;6.480;2022-07-29T06:32:23;15.50;99.90
36498;DHT22;22513;51.222;6.480;2022-07-29T06:34:49;15.50;99.90
36498;DHT22;22513;51.222;6.480;2022-07-29T06:37:14;15.50;99.90
36498;DHT22;22513;51.222;6.480;2022-07-29T06:39:40;15.50;99.90
36498;DHT22;22513;51.222;6.480;2022-07-29T06:42:06;15.60;99.90
36498;DHT22;22513;51.222;6.480;2022-07-29T06:44:32;15.60;99.90
36498;DHT22;22513;51.222;6.480;2022-07-29T06:47:01;15.60;99.90
36498;DHT22;22513;51.222;6.480;2022-07-29T06:49:26;15.60;99.90
36498;DHT22;22513;51.222;6.480;2022-07-29T06:51:53;15.60;99.90
36498;DHT22;22513;51.222;6.480;2022-07-29T06:54:19;15.60;99.90
36498;DHT22;22513;51.222;6.480;2022-07-29T06:56:45;15.70;99.90
36498;DHT22;22513;51.222;6.480;2022-07-29T06:59:12;15.60;99.90
36498;DHT22;22513;51.222;6.480;2022-07-29T07:01:40;15.60;99.90
36498;DHT22;22513;51.222;6.480;2022-07-29T07:04:06;15.60;99.90
36498;DHT22;22513;51.222;6.480;2022-07-29T07:06:34;15.60;99.90
36498;DHT22;22513;51.222;6.480;2022-07-29T07:08:59;15.50;99.90
36498;DHT22;22513;51.222;6.480;2022-07-29T07:11:25;15.50;99.90
36498;DHT22;22513;51.222;6.480;2022-07-29T07:13:51;15.50;99.90
36498;DHT22;22513;51.222;6.480;2022-07-29T07:16:16;15.50;99.90
36498;DHT22;22513;51.222;6.480;2022-07-29T07:18:42;15.50;99.90
36498;DHT22;22513;51.222;6.480;2022-07-29T07:21:10;15.50;99.90
36498;DHT22;22513;51.222;6.480;2022-07-29T07:23:36;15.50;99.90
36498;DHT22;22513;51.222;6.480;2022-07-29T07:26:01;15.50;99.90
36498;DHT22;22513;51.222;6.480;2022-07-29T07:28:28;15.50;99.90
36498;DHT22;22513;51.222;6.480;2022-07-29T07:30:54;15.40;99.90
36498;DHT22;22513;51.222;6.480;2022-07-29T07:33:20;15.40;99.90
36498;DHT22;22513;51.222;6.480;2022-07-29T07:55:59;16.20;99.90
36498;DHT22;22513;51.222;6.480;2022-07-29T07:58:43;16.40;99.90
36498;DHT22;22513;51.222;6.480;2022-07-29T08:01:09;16.10;99.90
36498;DHT22;22513;51.222;6.480;2022-07-29T08:03:36;16.80;99.90
36498;DHT22;22513;51.222;6.480;2022-07-29T08:06:04;16.80;99.90
36498;DHT22;22513;51.222;6.480;2022-07-29T08:08:31;17.30;99.90
36498;DHT22;22513;51.222;6.480;2022-07-29T08:10:56;17.40;99.90
36498;DHT22;22513;51.222;6.480;2022-07-29T08:13:24;17.40;99.90
36498;DHT22;22513;51.222;6.480;2022-07-29T08:15:50;18.00;99.90
36498;DHT22;22513;51.222;6.480;2022-07-29T08:18:28;18.40;99.90
36498;DHT22;22513;51.222;6.480;2022-07-29T08:20:54;19.00;99.90
36498;DHT22;22513;51.222;6.480;2022-07-29T08:23:21;18.80;99.90
36498;DHT22;22513;51.222;6.480;2022-07-29T08:28:14;18.90;99.90
36498;DHT22;22513;51.222;6.480;2022-07-29T08:30:39;18.70;99.90
36498;DHT22;22513;51.222;6.480;2022-07-29T08:35:31;18.70;99.90
36498;DHT22;22513;51.222;6.480;2022-07-29T08:37:57;18.60;99.90
36498;DHT22;22513;51.222;6.480;2022-07-29T08:40:23;18.60;99.90
36498;DHT22;22513;51.222;6.480;2022-07-29T08:42:50;18.50;99.90
36498;DHT22;22513;51.222;6.480;2022-07-29T08:45:16;18.40;99.90
36498;DHT22;22513;51.222;6.480;2022-07-29T08:47:46;18.30;99.90
36498;DHT22;22513;51.222;6.480;2022-07-29T08:50:12;18.20;99.90
36498;DHT22;22513;51.222;6.480;2022-07-29T08:52:39;18.20;99.90
36498;DHT22;22513;51.222;6.480;2022-07-29T08:55:07;18.20;99.90
36498;DHT22;22513;51.222;6.480;2022-07-29T08:57:34;18.30;99.90
36498;DHT22;22513;51.222;6.480;2022-07-29T09:03:18;18.40;99.90
36498;DHT22;22513;51.222;6.480;2022-07-29T09:06:21;18.30;99.90
36498;DHT22;22513;51.222;6.480;2022-07-29T09:08:47;18.30;99.90
36498;DHT22;22513;51.222;6.480;2022-07-29T09:11:32;18.20;99.90
36498;DHT22;22513;51.222;6.480;2022-07-29T09:13:58;18.10;99.90
36498;DHT22;22513;51.222;6.480;2022-07-29T09:16:24;17.90;99.90
36498;DHT22;22513;51.222;6.480;2022-07-29T09:18:49;17.90;99.90
36498;DHT22;22513;51.222;6.480;2022-07-29T09:21:17;18.10;99.90
36498;DHT22;22513;51.222;6.480;2022-07-29T09:24:05;18.10;99.90
36498;DHT22;22513;51.222;6.480;2022-07-29T09:26:36;18.50;99.90
36498;DHT22;22513;51.222;6.480;2022-07-29T09:29:32;18.90;99.90
36498;DHT22;22513;51.222;6.480;2022-07-29T09:31:57;19.40;99.90
36498;DHT22;22513;51.222;6.480;2022-07-29T09:34:24;19.80;99.90
36498;DHT22;22513;51.222;6.480;2022-07-29T09:36:52;20.10;99.90
36498;DHT22;22513;51.222;6.480;2022-07-29T09:39:36;20.40;99.90
36498;DHT22;22513;51.222;6.480;2022-07-29T09:42:04;20.70;99.90
36498;DHT22;22513;51.222;6.480;2022-07-29T09:44:50;20.80;99.90
36498;DHT22;22513;51.222;6.480;2022-07-29T09:47:17;20.90;99.90
36498;DHT22;22513;51.222;6.480;2022-07-29T09:49:57;21.10;99.90
36498;DHT22;22513;51.222;6.480;2022-07-29T09:52:24;21.30;99.90
36498;DHT22;22513;51.222;6.480;2022-07-29T09:54:49;21.50;99.90
36498;DHT22;22513;51.222;6.480;2022-07-29T09:57:26;21.50;99.90
36498;DHT22;22513;51.222;6.480;2022-07-29T10:02:39;21.20;99.90
36498;DHT22;22513;51.222;6.480;2022-07-29T10:05:16;21.20;99.90
36498;DHT22;22513;51.222;6.480;2022-07-29T10:10:09;21.30;99.90
36498;DHT22;22513;51.222;6.480;2022-07-29T10:12:51;21.30;99.90
36498;DHT22;22513;51.222;6.480;2022-07-29T10:15:18;21.20;99.90
36498;DHT22;22513;51.222;6.480;2022-07-29T10:17:44;21.20;99.90
36498;DHT22;22513;51.222;6.480;2022-07-29T10:20:10;21.10;99.90
36498;DHT22;22513;51.222;6.480;2022-07-29T10:22:36;21.10;99.90
36498;DHT22;22513;51.222;6.480;2022-07-29T10:25:03;21.20;99.90
36498;DHT22;22513;51.222;6.480;2022-07-29T10:27:28;21.30;99.90
36498;DHT22;22513;51.222;6.480;2022-07-29T10:29:54;21.50;99.90
36498;DHT22;22513;51.222;6.480;2022-07-29T10:37:49;22.30;99.90
36498;DHT22;22513;51.222;6.480;2022-07-29T10:43:24;22.70;99.90
36498;DHT22;22513;51.222;6.480;2022-07-29T10:45:57;22.80;99.90
36498;DHT22;22513;51.222;6.480;2022-07-29T10:48:25;23.00;99.90
36498;DHT22;22513;51.222;6.480;2022-07-29T10:50:58;22.90;99.90
36498;DHT22;22513;51.222;6.480;2022-07-29T10:53:46;22.90;99.90
36498;DHT22;22513;51.222;6.480;2022-07-29T10:56:27;22.50;99.90
36498;DHT22;22513;51.222;6.480;2022-07-29T11:01:43;22.60;99.90
36498;DHT22;22513;51.222;6.480;2022-07-29T11:04:09;22.70;99.90
36498;DHT22;22513;51.222;6.480;2022-07-29T11:09:24;23.20;99.90
36498;DHT22;22513;51.222;6.480;2022-07-29T11:11:49;23.30;99.90
36498;DHT22;22513;51.222;6.480;2022-07-29T11:14:15;23.50;99.90
36498;DHT22;22513;51.222;6.480;2022-07-29T11:17:00;23.60;99.90
36498;DHT22;22513;51.222;6.480;2022-07-29T11:19:28;23.50;99.90
36498;DHT22;22513;51.222;6.480;2022-07-29T11:21:53;23.50;99.90
36498;DHT22;22513;51.222;6.480;2022-07-29T11:24:28;23.50;99.90
36498;DHT22;22513;51.222;6.480;2022-07-29T11:27:15;23.50;99.90
36498;DHT22;22513;51.222;6.480;2022-07-29T11:29:56;23.30;99.90
36498;DHT22;22513;51.222;6.480;2022-07-29T11:32:23;23.10;99.90
36498;DHT22;22513;51.222;6.480;2022-07-29T11:35:10;23.00;99.90
36498;DHT22;22513;51.222;6.480;2022-07-29T11:37:36;23.00;99.90
36498;DHT22;22513;51.222;6.480;2022-07-29T11:45:02;22.60;99.90
36498;DHT22;22513;51.222;6.480;2022-07-29T11:47:33;22.50;99.90
36498;DHT22;22513;51.222;6.480;2022-07-29T11:50:02;22.60;99.90
36498;DHT22;22513;51.222;6.480;2022-07-29T11:52:45;22.60;99.90
36498;DHT22;22513;51.222;6.480;2022-07-29T11:55:19;22.80;99.90
36498;DHT22;22513;51.222;6.480;2022-07-29T11:57:55;22.80;99.90
36498;DHT22;22513;51.222;6.480;2022-07-29T12:02:52;22.90;99.90
36498;DHT22;22513;51.222;6.480;2022-07-29T12:05:19;22.90;99.90
36498;DHT22;22513;51.222;6.480;2022-07-29T12:07:46;23.10;99.90
36498;DHT22;22513;51.222;6.480;2022-07-29T12:10:12;23.30;99.90
36498;DHT22;22513;51.222;6.480;2022-07-29T12:12:38;23.50;99.90
36498;DHT22;22513;51.222;6.480;2022-07-29T12:15:15;23.60;99.90
36498;DHT22;22513;51.222;6.480;2022-07-29T12:17:43;23.80;99.90
36498;DHT22;22513;51.222;6.480;2022-07-29T12:20:09;24.00;99.90
36498;DHT22;22513;51.222;6.480;2022-07-29T12:22:37;24.00;99.90
36498;DHT22;22513;51.222;6.480;2022-07-29T12:25:09;24.10;99.90
36498;DHT22;22513;51.222;6.480;2022-07-29T12:27:36;24.10;99.90
36498;DHT22;22513;51.222;6.480;2022-07-29T12:30:06;24.20;99.90
36498;DHT22;22513;51.222;6.480;2022-07-29T12:32:55;24.00;99.90
36498;DHT22;22513;51.222;6.480;2022-07-29T12:35:20;24.00;99.50
36498;DHT22;22513;51.222;6.480;2022-07-29T12:37:48;23.90;99.90
36498;DHT22;22513;51.222;6.480;2022-07-29T12:40:16;23.90;99.80
36498;DHT22;22513;51.222;6.480;2022-07-29T12:45:37;23.40;99.90
36498;DHT22;22513;51.222;6.480;2022-07-29T12:48:04;23.20;99.90
36498;DHT22;22513;51.222;6.480;2022-07-29T12:50:29;23.10;99.90
36498;DHT22;22513;51.222;6.480;2022-07-29T12:53:08;23.10;99.90
36498;DHT22;22513;51.222;6.480;2022-07-29T12:58:04;22.90;99.90
36498;DHT22;22513;51.222;6.480;2022-07-29T13:00:30;22.80;99.90
36498;DHT22;22513;51.222;6.480;2022-07-29T13:02:57;22.70;99.90
36498;DHT22;22513;51.222;6.480;2022-07-29T13:05:23;22.60;99.90
36498;DHT22;22513;51.222;6.480;2022-07-29T13:07:50;22.50;99.90
36498;DHT22;22513;51.222;6.480;2022-07-29T13:10:17;22.40;99.90
36498;DHT22;22513;51.222;6.480;2022-07-29T13:13:08;22.40;99.90
36498;DHT22;22513;51.222;6.480;2022-07-29T13:15:43;22.30;99.90
36498;DHT22;22513;51.222;6.480;2022-07-29T13:18:28;22.30;99.90
36498;DHT22;22513;51.222;6.480;2022-07-29T13:20:54;22.30;99.90
36498;DHT22;22513;51.222;6.480;2022-07-29T13:23:20;22.30;99.40
36498;DHT22;22513;51.222;6.480;2022-07-29T13:25:45;22.20;99.80
36498;DHT22;22513;51.222;6.480;2022-07-29T13:28:11;22.10;99.90
36498;DHT22;22513;51.222;6.480;2022-07-29T13:30:37;22.10;99.10
36498;DHT22;22513;51.222;6.480;2022-07-29T13:33:04;22.10;99.50
36498;DHT22;22513;51.222;6.480;2022-07-29T13:35:30;22.10;98.80
36498;DHT22;22513;51.222;6.480;2022-07-29T13:37:55;22.10;97.90
36498;DHT22;22513;51.222;6.480;2022-07-29T13:40:21;22.10;98.30
36498;DHT22;22513;51.222;6.480;2022-07-29T13:42:46;22.00;98.10
36498;DHT22;22513;51.222;6.480;2022-07-29T13:45:12;22.00;99.10
36498;DHT22;22513;51.222;6.480;2022-07-29T13:47:38;22.10;96.80
36498;DHT22;22513;51.222;6.480;2022-07-29T13:50:06;22.20;96.60
36498;DHT22;22513;51.222;6.480;2022-07-29T13:52:32;22.20;96.90
36498;DHT22;22513;51.222;6.480;2022-07-29T13:54:58;22.30;96.40
36498;DHT22;22513;51.222;6.480;2022-07-29T13:57:24;22.30;95.70
36498;DHT22;22513;51.222;6.480;2022-07-29T13:59:50;22.30;94.80
36498;DHT22;22513;51.222;6.480;2022-07-29T14:02:16;22.40;95.40
36498;DHT22;22513;51.222;6.480;2022-07-29T14:04:42;22.40;95.50
36498;DHT22;22513;51.222;6.480;2022-07-29T14:07:08;22.50;95.60
36498;DHT22;22513;51.222;6.480;2022-07-29T14:09:35;22.50;93.70
36498;DHT22;22513;51.222;6.480;2022-07-29T14:12:01;22.50;93.70
36498;DHT22;22513;51.222;6.480;2022-07-29T14:14:28;22.50;93.50
36498;DHT22;22513;51.222;6.480;2022-07-29T14:16:54;22.50;93.30
36498;DHT22;22513;51.222;6.480;2022-07-29T14:19:19;22.50;93.30
36498;DHT22;22513;51.222;6.480;2022-07-29T14:21:45;22.50;93.60
36498;DHT22;22513;51.222;6.480;2022-07-29T14:24:11;22.60;92.90
36498;DHT22;22513;51.222;6.480;2022-07-29T14:26:37;22.60;93.20
36498;DHT22;22513;51.222;6.480;2022-07-29T14:29:02;22.70;93.50
36498;DHT22;22513;51.222;6.480;2022-07-29T14:31:28;22.80;93.20
36498;DHT22;22513;51.222;6.480;2022-07-29T14:33:53;22.80;93.30
36498;DHT22;22513;51.222;6.480;2022-07-29T14:36:19;22.90;93.40
36498;DHT22;22513;51.222;6.480;2022-07-29T14:38:44;23.00;93.00
36498;DHT22;22513;51.222;6.480;2022-07-29T14:41:11;23.00;92.10
36498;DHT22;22513;51.222;6.480;2022-07-29T14:43:37;23.10;92.50
36498;DHT22;22513;51.222;6.480;2022-07-29T14:46:03;23.20;93.20
36498;DHT22;22513;51.222;6.480;2022-07-29T14:48:28;23.30;93.90
36498;DHT22;22513;51.222;6.480;2022-07-29T14:50:54;23.40;94.10
36498;DHT22;22513;51.222;6.480;2022-07-29T14:53:22;23.40;94.20
36498;DHT22;22513;51.222;6.480;2022-07-29T14:55:47;23.50;94.00
36498;DHT22;22513;51.222;6.480;2022-07-29T14:58:13;23.60;94.20
36498;DHT22;22513;51.222;6.480;2022-07-29T15:00:39;23.70;93.50
36498;DHT22;22513;51.222;6.480;2022-07-29T15:03:05;23.70;93.30
36498;DHT22;22513;51.222;6.480;2022-07-29T15:05:31;23.60;94.10
36498;DHT22;22513;51.222;6.480;2022-07-29T15:07:58;23.60;94.30
36498;DHT22;22513;51.222;6.480;2022-07-29T15:10:24;23.60;94.30
36498;DHT22;22513;51.222;6.480;2022-07-29T15:12:52;23.70;94.70
36498;DHT22;22513;51.222;6.480;2022-07-29T15:15:18;23.70;94.10
36498;DHT22;22513;51.222;6.480;2022-07-29T15:17:43;23.70;94.20
36498;DHT22;22513;51.222;6.480;2022-07-29T15:20:09;23.70;94.50
36498;DHT22;22513;51.222;6.480;2022-07-29T15:22:36;23.80;93.80
36498;DHT22;22513;51.222;6.480;2022-07-29T15:25:03;23.80;93.60
36498;DHT22;22513;51.222;6.480;2022-07-29T15:27:29;23.80;93.60
36498;DHT22;22513;51.222;6.480;2022-07-29T15:29:56;23.80;93.50
36498;DHT22;22513;51.222;6.480;2022-07-29T15:32:21;23.80;93.80
36498;DHT22;22513;51.222;6.480;2022-07-29T15:34:47;23.80;93.60
36498;DHT22;22513;51.222;6.480;2022-07-29T15:37:12;23.90;93.40
36498;DHT22;22513;51.222;6.480;2022-07-29T15:39:38;24.00;93.20
36498;DHT22;22513;51.222;6.480;2022-07-29T15:42:04;24.10;92.40
36498;DHT22;22513;51.222;6.480;2022-07-29T15:44:30;24.10;92.30
36498;DHT22;22513;51.222;6.480;2022-07-29T15:46:55;24.10;92.00
36498;DHT22;22513;51.222;6.480;2022-07-29T15:49:34;24.00;92.20
36498;DHT22;22513;51.222;6.480;2022-07-29T15:52:01;24.10;92.30
36498;DHT22;22513;51.222;6.480;2022-07-29T15:54:28;24.10;92.20
36498;DHT22;22513;51.222;6.480;2022-07-29T15:56:55;24.00;92.30
36498;DHT22;22513;51.222;6.480;2022-07-29T15:59:21;24.10;92.60
36498;DHT22;22513;51.222;6.480;2022-07-29T16:01:47;24.10;92.60
36498;DHT22;22513;51.222;6.480;2022-07-29T16:04:13;24.30;92.40
36498;DHT22;22513;51.222;6.480;2022-07-29T16:06:39;24.30;92.20
36498;DHT22;22513;51.222;6.480;2022-07-29T16:09:05;24.40;92.00
36498;DHT22;22513;51.222;6.480;2022-07-29T16:11:30;24.50;91.80
36498;DHT22;22513;51.222;6.480;2022-07-29T16:13:56;24.70;91.10
36498;DHT22;22513;51.222;6.480;2022-07-29T16:16:22;24.80;90.70
36498;DHT22;22513;51.222;6.480;2022-07-29T16:18:48;25.00;90.70
36498;DHT22;22513;51.222;6.480;2022-07-29T16:21:14;25.00;90.10
36498;DHT22;22513;51.222;6.480;2022-07-29T16:23:39;25.10;90.00
36498;DHT22;22513;51.222;6.480;2022-07-29T16:26:05;25.10;88.00
36498;DHT22;22513;51.222;6.480;2022-07-29T16:28:32;25.00;88.40
36498;DHT22;22513;51.222;6.480;2022-07-29T16:30:57;24.90;88.00
36498;DHT22;22513;51.222;6.480;2022-07-29T16:33:23;25.00;89.30
36498;DHT22;22513;51.222;6.480;2022-07-29T16:35:50;25.00;88.50
36498;DHT22;22513;51.222;6.480;2022-07-29T16:38:16;25.00;87.20
36498;DHT22;22513;51.222;6.480;2022-07-29T16:40:41;25.00;86.90
36498;DHT22;22513;51.222;6.480;2022-07-29T16:43:07;25.00;87.30
36498;DHT22;22513;51.222;6.480;2022-07-29T16:45:34;24.90;87.20
36498;DHT22;22513;51.222;6.480;2022-07-29T16:48:00;24.80;88.20
36498;DHT22;22513;51.222;6.480;2022-07-29T16:50:27;24.80;89.00